KDGW/DGW METAR and TAF weather

Enter ICAO airport designator
Station Type Date Time Source
KDGW METAR 2020/02/25 12:53 UTC NOAA

KDGW 251253Z AUTO 34026G33KT 1 1/2SM -SN OVC018 M07/M11 A3027 RMK AO2 PK WND 33035/1202 SLP298 P0000 T10721106 $


Station Type Date Time Source
KDGW Decoded METAR 2020/02/25 12:53 UTC NOAA

DOUGLAS CONVERSE COUNTY, WY, United States (KDGW) 42-48N 105-23W 1499M
Feb 25, 2020 - 07:53 AM EST / 2020.02.25 1253 UTC
Wind: from the NNW (340 degrees) at 30 MPH (26 KT) gusting to 38 MPH (33 KT):0
Visibility: 1 1/2 mile(s):0
Sky conditions: overcast
Weather: light snow
Precipitation last hour: A trace
Temperature: 19.0 F (-7.2 C)
Windchill: 0 F (-18 C):1
Dew Point: 12.9 F (-10.6 C)
Relative Humidity: 76%
Pressure (altimeter): 30.27 in. Hg (1025 hPa)
ob: KDGW 251253Z AUTO 34026G33KT 1 1/2SM -SN OVC018 M07/M11 A3027 RMK AO2 PK WND 33035/1202 SLP298 P0000 T10721106
cycle: 13

Station Type Date Time Source
KDGW TAF UTC NOAA

Error!

Example: see airport list